createdAt,value
2022-10-23T00:00:14.892Z,98215.28
2022-10-23T00:02:18.022Z,98220.50
2022-10-23T00:04:23.227Z,98210.38
2022-10-23T00:06:26.894Z,98210.50
2022-10-23T00:08:29.853Z,98220.97
2022-10-23T00:10:33.361Z,98210.50
2022-10-23T00:12:39.253Z,98196.00
2022-10-23T00:14:42.351Z,98202.16
2022-10-23T00:16:45.432Z,98198.84
2022-10-23T00:18:48.459Z,98191.09
2022-10-23T00:20:51.490Z,98198.09
2022-10-23T00:22:54.527Z,98186.09
2022-10-23T00:24:57.680Z,98186.22
2022-10-23T00:27:00.703Z,98180.97
2022-10-23T00:29:05.402Z,98180.13
2022-10-23T00:31:08.493Z,98176.69
2022-10-23T00:33:11.877Z,98174.31
2022-10-23T00:35:15.810Z,98170.00
2022-10-23T00:37:18.979Z,98181.31
2022-10-23T00:39:21.929Z,98177.03
2022-10-23T00:41:28.459Z,98176.31
2022-10-23T00:43:32.611Z,98171.31
2022-10-23T00:45:36.981Z,98175.09
2022-10-23T00:47:40.963Z,98171.78
2022-10-23T00:49:44.084Z,98168.44
2022-10-23T00:51:50.841Z,98171.88
2022-10-23T00:54:06.647Z,98167.59
2022-10-23T00:56:15.906Z,98165.09
2022-10-23T00:58:20.524Z,98166.16
2022-10-23T01:00:26.323Z,98162.59
2022-10-23T01:02:30.873Z,98164.38
2022-10-23T01:04:34.512Z,98160.94
2022-10-23T01:06:39.555Z,98168.91
2022-10-23T01:08:49.951Z,98168.03
2022-10-23T01:10:56.532Z,98166.41
2022-10-23T01:13:07.618Z,98169.94
2022-10-23T01:15:23.049Z,98160.44
2022-10-23T01:17:32.011Z,98165.78
2022-10-23T01:19:48.111Z,98167.44
2022-10-23T01:21:56.379Z,98165.78
2022-10-23T01:24:22.833Z,98158.03
2022-10-23T01:26:34.977Z,98155.66
2022-10-23T01:28:44.880Z,98155.75
2022-10-23T01:30:49.786Z,98153.25
2022-10-23T01:32:56.041Z,98149.13
2022-10-23T01:35:04.611Z,98150.03
2022-10-23T01:37:09.968Z,98146.59
2022-10-23T01:39:16.695Z,98136.38
2022-10-23T01:41:24.169Z,98139.94
2022-10-23T01:43:31.293Z,98140.75
2022-10-23T01:45:40.382Z,98145.97
2022-10-23T01:47:46.331Z,98148.69
2022-10-23T01:49:53.201Z,98143.47
2022-10-23T01:51:59.236Z,98140.88
2022-10-23T01:54:03.869Z,98140.97
2022-10-23T01:56:10.669Z,98139.44
2022-10-23T01:58:16.606Z,98142.06
2022-10-23T02:00:21.138Z,98149.03
2022-10-23T02:02:29.338Z,98147.50
2022-10-23T02:04:35.780Z,98148.44
2022-10-23T02:06:39.449Z,98137.28
2022-10-23T02:08:43.351Z,98134.78
2022-10-23T02:10:51.288Z,98142.50
2022-10-23T02:12:58.974Z,98133.94
2022-10-23T02:15:07.973Z,98125.47
2022-10-23T02:17:17.114Z,98125.38
2022-10-23T02:19:26.444Z,98126.34
2022-10-23T02:21:44.291Z,98129.06
2022-10-23T02:23:53.785Z,98123.09
2022-10-23T02:26:10.788Z,98125.59
2022-10-23T02:28:17.935Z,98127.50
2022-10-23T02:30:22.942Z,98118.09
2022-10-23T02:32:36.315Z,98111.22
2022-10-23T02:34:42.220Z,98103.25
2022-10-23T02:36:47.670Z,98098.03
2022-10-23T02:38:51.440Z,98096.34
2022-10-23T02:40:56.126Z,98098.97
2022-10-23T02:43:03.529Z,98097.41
2022-10-23T02:45:10.979Z,98095.66
2022-10-23T02:47:25.676Z,98099.91
2022-10-23T02:49:37.280Z,98101.56
2022-10-23T02:51:55.945Z,98098.25
2022-10-23T02:54:04.972Z,98095.66
2022-10-23T02:56:13.757Z,98093.97
2022-10-23T02:58:22.792Z,98089.78
2022-10-23T03:00:31.179Z,98075.91
2022-10-23T03:02:38.836Z,98072.56
2022-10-23T03:04:44.123Z,98081.34
2022-10-23T03:06:48.881Z,98077.91
2022-10-23T03:08:55.697Z,98073.72
2022-10-23T03:11:01.194Z,98078.97
2022-10-23T03:13:05.140Z,98080.75
2022-10-23T03:15:17.354Z,98081.69
2022-10-23T03:17:21.202Z,98064.22
2022-10-23T03:19:24.346Z,98070.28
2022-10-23T03:21:27.409Z,98065.06
2022-10-23T03:23:31.826Z,98067.69
2022-10-23T03:25:35.727Z,98063.38
2022-10-23T03:27:38.984Z,98068.41
2022-10-23T03:29:45.100Z,98064.00
2022-10-23T03:31:50.505Z,98064.84
2022-10-23T03:33:53.527Z,98066.50
2022-10-23T03:35:57.776Z,98069.97
2022-10-23T03:38:00.951Z,98069.09
2022-10-23T03:40:06.244Z,98055.94
2022-10-23T03:42:11.114Z,98056.91
2022-10-23T03:44:14.167Z,98052.50
2022-10-23T03:46:20.136Z,98055.00
2022-10-23T03:48:27.021Z,98054.16
2022-10-23T03:50:34.429Z,98050.69
2022-10-23T03:52:37.656Z,98050.00
2022-10-23T03:54:40.633Z,98055.00
2022-10-23T03:56:45.113Z,98047.25
2022-10-23T03:58:48.266Z,98050.81
2022-10-23T04:00:51.320Z,98052.72
2022-10-23T04:02:54.284Z,98050.09
2022-10-23T04:04:57.519Z,98050.00
2022-10-23T04:07:00.522Z,98051.91
2022-10-23T04:09:05.045Z,98047.72
2022-10-23T04:11:08.391Z,98049.41
2022-10-23T04:13:20.635Z,98045.09
2022-10-23T04:15:23.615Z,98052.94
2022-10-23T04:19:29.720Z,98051.25
2022-10-23T04:21:32.995Z,98046.91
2022-10-23T04:23:37.358Z,98054.84
2022-10-23T04:25:42.086Z,98055.66
2022-10-23T04:27:45.347Z,98042.81
2022-10-23T04:29:50.101Z,98050.56
2022-10-23T04:31:53.158Z,98054.00
2022-10-23T04:33:56.524Z,98055.78
2022-10-23T04:36:07.945Z,98054.97
2022-10-23T04:38:11.061Z,98055.91
2022-10-23T04:40:14.289Z,98058.50
2022-10-23T04:42:17.370Z,98054.22
2022-10-23T04:44:20.466Z,98051.72
2022-10-23T04:46:24.936Z,98049.94
2022-10-23T04:48:29.209Z,98047.34
2022-10-23T04:50:58.455Z,98050.06
2022-10-23T04:53:16.022Z,98045.66
2022-10-23T04:55:36.865Z,98049.22
2022-10-23T04:57:49.268Z,98050.19
2022-10-23T04:59:56.265Z,98046.81
2022-10-23T05:02:01.440Z,98050.19
2022-10-23T05:04:05.059Z,98049.22
2022-10-23T05:06:12.634Z,98044.84
2022-10-23T05:08:24.511Z,98043.88
2022-10-23T05:10:42.566Z,98044.72
2022-10-23T05:12:48.523Z,98047.34
2022-10-23T05:14:51.700Z,98048.16
2022-10-23T05:16:58.093Z,98055.06
2022-10-23T05:19:02.610Z,98053.28
2022-10-23T05:21:09.558Z,98045.44
2022-10-23T05:23:17.819Z,98040.22
2022-10-23T05:25:31.275Z,98035.81
2022-10-23T05:27:45.807Z,98036.66
2022-10-23T05:29:50.645Z,98042.72
2022-10-23T05:32:01.567Z,98043.53
2022-10-23T05:34:11.165Z,98036.88
2022-10-23T05:36:19.881Z,98039.38
2022-10-23T05:38:23.646Z,98038.53
2022-10-23T05:40:27.057Z,98032.50
2022-10-23T05:42:40.831Z,98034.16
2022-10-23T05:44:44.745Z,98031.44
2022-10-23T05:47:18.729Z,98035.81
2022-10-23T05:49:41.844Z,98031.44
2022-10-23T05:52:03.489Z,98024.53
2022-10-23T05:54:18.106Z,98033.19
2022-10-23T05:56:41.752Z,98027.16
2022-10-23T05:58:59.036Z,98022.88
2022-10-23T06:01:08.299Z,98021.81
2022-10-23T06:03:28.154Z,98016.59
2022-10-23T06:05:32.722Z,98022.53
2022-10-23T06:08:11.096Z,98013.03
2022-10-23T06:10:14.719Z,98011.25
2022-10-23T06:12:21.436Z,98009.47
2022-10-23T06:14:26.494Z,98011.97
2022-10-23T06:16:30.741Z,98004.00
2022-10-23T06:18:34.002Z,98009.97
2022-10-23T06:20:44.306Z,98007.94
2022-10-23T06:22:57.906Z,98002.50
2022-10-23T06:25:20.249Z,98004.06
2022-10-23T06:27:23.727Z,98012.50
2022-10-23T06:29:27.200Z,98010.34
2022-10-23T06:31:30.250Z,98008.47
2022-10-23T06:33:34.257Z,98015.34
2022-10-23T06:35:39.287Z,98011.81
2022-10-23T06:37:43.719Z,98016.78
2022-10-23T06:39:53.567Z,98017.38
2022-10-23T06:42:12.037Z,98011.22
2022-10-23T06:44:44.495Z,98016.09
2022-10-23T06:46:48.381Z,98008.16
2022-10-23T06:49:15.885Z,98009.44
2022-10-23T06:51:24.072Z,97999.94
2022-10-23T06:53:28.675Z,97994.25
2022-10-23T06:55:41.942Z,97994.03
2022-10-23T06:57:46.381Z,97995.66
2022-10-23T06:59:49.734Z,97999.59
2022-10-23T07:03:58.880Z,98001.63
2022-10-23T07:06:03.153Z,98006.38
2022-10-23T07:08:07.182Z,98012.22
2022-10-23T07:10:17.709Z,98007.44
2022-10-23T07:12:24.028Z,98000.22
2022-10-23T07:14:38.925Z,97997.13
2022-10-23T07:16:42.741Z,97995.91
2022-10-23T07:18:47.535Z,97991.16
2022-10-23T07:21:17.290Z,97996.19
2022-10-23T07:23:21.066Z,97996.66
2022-10-23T07:25:26.943Z,97998.78
2022-10-23T07:27:30.240Z,97998.28
2022-10-23T07:29:37.389Z,97996.59
2022-10-23T07:31:41.039Z,97999.44
2022-10-23T07:34:02.602Z,98004.19
2022-10-23T07:36:06.970Z,97998.69
2022-10-23T07:38:10.120Z,98002.38
2022-10-23T07:40:18.773Z,98010.44
2022-10-23T07:42:23.231Z,98011.47
2022-10-23T07:44:27.749Z,98001.19
2022-10-23T07:46:31.967Z,98009.13
2022-10-23T07:48:35.158Z,98012.81
2022-10-23T07:50:39.350Z,98018.25
2022-10-23T07:52:42.647Z,98026.19
2022-10-23T07:54:48.229Z,98018.41
2022-10-23T07:56:58.015Z,98022.78
2022-10-23T07:59:18.622Z,98019.41
2022-10-23T08:01:32.899Z,98024.13
2022-10-23T08:03:36.344Z,98036.72
2022-10-23T08:05:40.989Z,98033.97
2022-10-23T08:07:45.391Z,98044.91
2022-10-23T08:09:48.536Z,98034.59
2022-10-23T08:11:51.612Z,98032.59
2022-10-23T08:13:57.174Z,98034.59
2022-10-23T08:16:04.364Z,98034.50
2022-10-23T08:18:26.347Z,98031.34
2022-10-23T08:20:29.838Z,98032.34
2022-10-23T08:22:35.096Z,98033.19
2022-10-23T08:24:38.750Z,98032.84
2022-10-23T08:26:42.094Z,98028.44
2022-10-23T08:28:46.089Z,98030.25
2022-10-23T08:30:49.462Z,98031.22
2022-10-23T08:32:55.156Z,98028.19
2022-10-23T08:34:58.397Z,98021.16
2022-10-23T08:37:03.728Z,98024.63
2022-10-23T08:39:10.771Z,98029.19
2022-10-23T08:41:25.899Z,98026.00
2022-10-23T08:43:37.105Z,98021.31
2022-10-23T08:45:57.952Z,98013.66
2022-10-23T08:48:32.353Z,98006.56
2022-10-23T08:50:57.481Z,98007.09
2022-10-23T08:53:04.134Z,98009.88
2022-10-23T08:55:16.603Z,98004.59
2022-10-23T08:57:23.468Z,97994.75
2022-10-23T08:59:29.063Z,97992.13
2022-10-23T09:01:37.779Z,97990.63
2022-10-23T09:03:44.435Z,97994.03
2022-10-23T09:05:57.954Z,97985.84
2022-10-23T09:08:16.001Z,97981.19
2022-10-23T09:10:30.750Z,97980.84
2022-10-23T09:12:33.828Z,97977.31
2022-10-23T09:14:47.900Z,97968.41
2022-10-23T09:17:00.987Z,97973.88
2022-10-23T09:19:12.952Z,97986.47
2022-10-23T09:21:16.118Z,97979.31
2022-10-23T09:23:22.557Z,97987.69
2022-10-23T09:25:28.024Z,97989.50
2022-10-23T09:27:31.160Z,97987.69
2022-10-23T09:29:36.028Z,97989.09
2022-10-23T09:31:49.771Z,98003.75
2022-10-23T09:33:57.950Z,97994.91
2022-10-23T09:36:04.470Z,97994.81
2022-10-23T09:38:26.664Z,97987.75
2022-10-23T09:40:34.603Z,97991.09
2022-10-23T09:42:38.485Z,98003.19
2022-10-23T09:44:49.218Z,97999.13
2022-10-23T09:46:54.157Z,97990.88
2022-10-23T09:49:00.955Z,97982.78
2022-10-23T09:51:18.063Z,97979.22
2022-10-23T09:53:28.181Z,97970.66
2022-10-23T09:55:31.440Z,97972.34
2022-10-23T09:57:39.099Z,97967.13
2022-10-23T09:59:43.310Z,97966.16
2022-10-23T10:01:53.930Z,97959.72
2022-10-23T10:04:34.753Z,97960.59
2022-10-23T10:06:42.714Z,97952.47
2022-10-23T10:08:51.586Z,97952.34
2022-10-23T10:10:59.042Z,97943.44
2022-10-23T10:13:14.280Z,97926.72
2022-10-23T10:15:24.920Z,97936.66
2022-10-23T10:17:49.862Z,97937.84
2022-10-23T10:20:16.694Z,97930.72
2022-10-23T10:22:29.550Z,97931.41
2022-10-23T10:24:40.558Z,97938.38
2022-10-23T10:26:51.088Z,97950.28
2022-10-23T10:29:03.336Z,97946.78
2022-10-23T10:31:12.136Z,97947.75
2022-10-23T10:33:19.561Z,97946.91
2022-10-23T10:35:38.609Z,97941.13
2022-10-23T10:37:55.827Z,97939.13
2022-10-23T10:40:03.063Z,97933.97
2022-10-23T10:42:28.757Z,97937.31
2022-10-23T10:44:46.124Z,97931.84
2022-10-23T10:46:54.232Z,97927.31
2022-10-23T10:49:01.723Z,97927.50
2022-10-23T10:51:18.415Z,97924.34
2022-10-23T10:53:29.882Z,97912.22
2022-10-23T10:55:35.705Z,97913.53
2022-10-23T10:57:42.420Z,97903.88
2022-10-23T10:59:47.489Z,97895.06
2022-10-23T11:01:54.818Z,97892.88
2022-10-23T11:04:03.194Z,97872.47
2022-10-23T11:06:07.836Z,97873.31
2022-10-23T11:08:16.374Z,97881.28
2022-10-23T11:10:21.469Z,97890.22
2022-10-23T11:12:26.488Z,97890.22
2022-10-23T11:14:32.972Z,97892.88
2022-10-23T11:16:38.518Z,97901.66
2022-10-23T11:18:43.568Z,97907.81
2022-10-23T11:20:55.246Z,97896.19
2022-10-23T11:23:03.397Z,97885.06
2022-10-23T11:25:19.086Z,97885.84
2022-10-23T11:27:37.847Z,97891.09
2022-10-23T11:30:00.885Z,97883.44
2022-10-23T11:32:15.710Z,97877.13
2022-10-23T11:34:44.976Z,97872.81
2022-10-23T11:36:51.045Z,97867.69
2022-10-23T11:39:08.432Z,97867.50
2022-10-23T11:41:22.446Z,97866.34
2022-10-23T11:43:33.456Z,97858.66
2022-10-23T11:45:38.882Z,97853.19
2022-10-23T11:47:44.203Z,97847.69
2022-10-23T11:49:48.258Z,97840.41
2022-10-23T11:52:01.818Z,97842.88
2022-10-23T11:54:22.470Z,97842.53
2022-10-23T11:56:31.208Z,97832.91
2022-10-23T11:58:48.200Z,97825.75
2022-10-23T12:00:55.788Z,97825.56
2022-10-23T12:02:59.433Z,97819.28
2022-10-23T12:05:05.484Z,97816.63
2022-10-23T12:07:18.003Z,97819.28
2022-10-23T12:09:28.067Z,97812.97
2022-10-23T12:11:43.214Z,97812.78
2022-10-23T12:13:47.811Z,97816.28
2022-10-23T12:15:57.154Z,97814.28
2022-10-23T12:18:10.291Z,97815.09
2022-10-23T12:20:27.346Z,97815.94
2022-10-23T12:22:39.405Z,97814.09
2022-10-23T12:24:52.610Z,97808.78
2022-10-23T12:27:15.675Z,97800.00
2022-10-23T12:29:29.575Z,97796.16
2022-10-23T12:31:43.100Z,97801.94
2022-10-23T12:33:54.710Z,97786.66
2022-10-23T12:36:29.970Z,97781.16
2022-10-23T12:38:35.563Z,97780.00
2022-10-23T12:40:39.598Z,97779.81
2022-10-23T12:42:43.137Z,97782.28
2022-10-23T12:44:47.683Z,97783.72
2022-10-23T12:46:53.133Z,97782.56
2022-10-23T12:48:57.933Z,97778.06
2022-10-23T12:51:01.102Z,97773.25
2022-10-23T12:53:05.936Z,97777.34
2022-10-23T12:55:15.071Z,97765.53
2022-10-23T12:57:21.996Z,97767.66
2022-10-23T12:59:27.299Z,97764.44
2022-10-23T13:01:33.601Z,97769.41
2022-10-23T13:03:37.296Z,97759.22
2022-10-23T13:05:40.430Z,97759.03
2022-10-23T13:07:45.587Z,97761.50
2022-10-23T13:09:50.537Z,97764.63
2022-10-23T13:12:02.190Z,97765.91
2022-10-23T13:14:12.475Z,97755.72
2022-10-23T13:16:16.396Z,97754.56
2022-10-23T13:18:21.035Z,97755.38
2022-10-23T13:20:27.512Z,97745.59
2022-10-23T13:22:30.590Z,97742.56
2022-10-23T13:24:33.765Z,97739.53
2022-10-23T13:26:42.815Z,97733.19
2022-10-23T13:28:46.381Z,97746.13
2022-10-23T13:31:04.615Z,97733.88
2022-10-23T13:33:15.643Z,97725.91
2022-10-23T13:35:24.066Z,97724.22
2022-10-23T13:37:28.616Z,97717.63
2022-10-23T13:39:33.110Z,97710.66
2022-10-23T13:41:39.507Z,97706.34
2022-10-23T13:43:43.294Z,97709.19
2022-10-23T13:45:46.371Z,97726.13
2022-10-23T13:47:49.614Z,97731.63
2022-10-23T13:49:52.748Z,97723.03
2022-10-23T13:51:59.238Z,97720.56
2022-10-23T13:54:02.419Z,97725.06
2022-10-23T13:56:05.695Z,97722.97
2022-10-23T13:58:11.755Z,97726.97
2022-10-23T14:00:16.136Z,97728.34
2022-10-23T14:02:21.374Z,97721.78
2022-10-23T14:04:24.698Z,97722.94
2022-10-23T14:06:27.681Z,97722.13
2022-10-23T14:08:32.130Z,97718.63
2022-10-23T14:10:35.114Z,97717.81
2022-10-23T14:12:41.647Z,97718.63
2022-10-23T14:14:44.796Z,97711.69
2022-10-23T14:16:48.111Z,97720.66
2022-10-23T14:18:51.291Z,97712.06
2022-10-23T14:20:54.365Z,97706.94
2022-10-23T14:22:57.819Z,97708.59
2022-10-23T14:25:02.285Z,97704.28
2022-10-23T14:27:05.640Z,97708.78
2022-10-23T14:29:18.421Z,97709.13
2022-10-23T14:31:24.598Z,97705.00
2022-10-23T14:33:27.771Z,97715.19
2022-10-23T14:35:31.015Z,97706.91
2022-10-23T14:37:35.398Z,97704.63
2022-10-23T14:39:38.792Z,97708.66
2022-10-23T14:41:43.261Z,97702.06
2022-10-23T14:43:46.428Z,97701.44
2022-10-23T14:45:49.837Z,97695.63
2022-10-23T14:47:52.844Z,97688.03
2022-10-23T14:49:56.182Z,97682.41
2022-10-23T14:51:59.197Z,97689.75
2022-10-23T14:54:03.980Z,97690.13
2022-10-23T14:56:07.615Z,97681.03
2022-10-23T14:58:12.015Z,97685.53
2022-10-23T15:00:16.270Z,97680.56
2022-10-23T15:02:19.332Z,97678.47
2022-10-23T15:04:22.909Z,97679.63
2022-10-23T15:06:26.553Z,97673.06
2022-10-23T15:08:29.717Z,97668.94
2022-10-23T15:10:32.744Z,97661.34
2022-10-23T15:12:36.226Z,97668.00
2022-10-23T15:14:40.628Z,97665.69
2022-10-23T15:16:43.654Z,97658.13
2022-10-23T15:18:46.676Z,97653.34
2022-10-23T15:20:53.736Z,97646.56
2022-10-23T15:22:56.760Z,97644.09
2022-10-23T15:24:59.754Z,97639.97
2022-10-23T15:27:03.770Z,97642.97
2022-10-23T15:29:06.831Z,97634.75
2022-10-23T15:48:28.570Z,97618.28
2022-10-23T15:50:31.533Z,97620.31
2022-10-23T15:52:34.557Z,97618.81
2022-10-23T15:54:39.575Z,97615.34
2022-10-23T15:56:42.607Z,97612.25
2022-10-23T15:58:45.671Z,97615.25
2022-10-23T16:00:48.699Z,97619.22
2022-10-23T16:02:52.831Z,97605.34
2022-10-23T16:04:57.241Z,97599.75
2022-10-23T16:07:00.216Z,97606.41
2022-10-23T16:09:03.434Z,97608.75
2022-10-23T16:11:14.179Z,97610.28
2022-10-23T16:13:17.224Z,97605.50
2022-10-23T16:15:25.694Z,97605.22
2022-10-23T16:17:28.767Z,97614.03
2022-10-23T16:19:31.756Z,97601.44
2022-10-23T16:21:37.119Z,97598.97
2022-10-23T16:23:40.261Z,97600.13
2022-10-23T16:25:43.411Z,97609.91
2022-10-23T16:27:47.600Z,97604.31
2022-10-23T16:29:50.656Z,97607.31
2022-10-23T16:31:54.565Z,97615.75
2022-10-23T16:33:58.827Z,97610.63
2022-10-23T16:36:04.427Z,97616.44
2022-10-23T16:38:08.769Z,97626.53
2022-10-23T16:40:12.444Z,97633.16
2022-10-23T16:42:34.244Z,97641.44
2022-10-23T16:45:07.201Z,97630.22
2022-10-23T16:47:10.566Z,97630.41
2022-10-23T16:49:14.484Z,97630.06
2022-10-23T16:51:19.390Z,97628.59
2022-10-23T16:53:26.790Z,97631.59
2022-10-23T16:55:29.894Z,97630.25
2022-10-23T16:57:32.972Z,97631.59
2022-10-23T16:59:36.117Z,97620.34
2022-10-23T17:01:39.524Z,97618.06
2022-10-23T17:03:47.782Z,97622.00
2022-10-23T17:05:50.857Z,97626.66
2022-10-23T17:07:53.894Z,97606.66
2022-10-23T17:09:58.299Z,97614.75
2022-10-23T17:12:01.308Z,97607.16
2022-10-23T17:14:05.867Z,97614.63
2022-10-23T17:16:11.414Z,97606.19
2022-10-23T17:18:14.449Z,97621.72
2022-10-23T17:20:17.962Z,97631.78
2022-10-23T17:22:21.050Z,97638.91
2022-10-23T17:24:24.736Z,97632.97
2022-10-23T17:26:29.168Z,97632.44
2022-10-23T17:28:34.109Z,97636.91
2022-10-23T17:30:38.965Z,97647.66
2022-10-23T17:32:42.305Z,97640.06
2022-10-23T17:34:46.551Z,97639.56
2022-10-23T17:36:51.519Z,97640.88
2022-10-23T17:38:54.733Z,97643.88
2022-10-23T17:40:57.819Z,97646.66
2022-10-23T17:43:03.138Z,97663.69
2022-10-23T17:45:06.885Z,97674.28
2022-10-23T17:47:09.963Z,97683.34
2022-10-23T17:49:13.733Z,97692.09
2022-10-23T17:51:18.362Z,97709.94
2022-10-23T17:53:21.428Z,97704.81
2022-10-23T17:55:24.480Z,97702.97
2022-10-23T17:57:27.522Z,97695.22
2022-10-23T17:59:32.370Z,97691.13
2022-10-23T18:01:35.749Z,97683.19
2022-10-23T18:03:39.418Z,97683.50
2022-10-23T18:05:42.642Z,97674.75
2022-10-23T18:07:45.698Z,97688.78
2022-10-23T18:09:48.954Z,97663.53
2022-10-23T18:11:52.786Z,97660.22
2022-10-23T18:13:56.042Z,97663.19
2022-10-23T18:16:03.798Z,97655.44
2022-10-23T18:18:07.887Z,97650.47
2022-10-23T18:20:12.055Z,97650.81
2022-10-23T18:22:15.221Z,97654.91
2022-10-23T18:24:19.222Z,97669.13
2022-10-23T18:26:23.898Z,97669.44
2022-10-23T18:28:27.659Z,97684.16
2022-10-23T18:30:30.774Z,97686.00
2022-10-23T18:32:35.355Z,97685.63
2022-10-23T18:34:38.330Z,97699.00
2022-10-23T18:36:41.671Z,97697.69
2022-10-23T18:38:44.788Z,97717.16
2022-10-23T18:40:55.219Z,97728.72
2022-10-23T18:42:58.316Z,97731.34
2022-10-23T18:45:01.654Z,97758.09
2022-10-23T18:47:04.852Z,97774.94
2022-10-23T18:49:09.838Z,97779.53
2022-10-23T18:51:18.811Z,97767.50
2022-10-23T18:53:21.932Z,97826.09
2022-10-23T18:55:25.523Z,97830.00
2022-10-23T18:57:28.760Z,97825.91
2022-10-23T18:59:31.928Z,97821.75
2022-10-23T19:01:35.747Z,97822.06
2022-10-23T19:03:39.052Z,97811.81
2022-10-23T19:05:44.967Z,97804.72
2022-10-23T19:07:49.208Z,97794.00
2022-10-23T19:09:52.758Z,97789.72
2022-10-23T19:11:55.841Z,97798.47
2022-10-23T19:13:58.935Z,97802.94
2022-10-23T19:16:02.036Z,97803.75
2022-10-23T19:18:06.204Z,97793.50
2022-10-23T19:20:15.625Z,97803.91
2022-10-23T19:22:20.297Z,97799.13
2022-10-23T19:24:25.496Z,97804.94
2022-10-23T19:26:28.637Z,97809.22
2022-10-23T19:28:37.566Z,97808.22
2022-10-23T19:30:41.793Z,97803.78
2022-10-23T19:32:46.550Z,97815.84
2022-10-23T19:34:49.674Z,97819.13
2022-10-23T19:36:54.570Z,97816.34
2022-10-23T19:39:01.572Z,97806.59
2022-10-23T19:41:04.776Z,97812.03
2022-10-23T19:43:08.585Z,97801.31
2022-10-23T19:45:13.620Z,97809.91
2022-10-23T19:47:16.988Z,97820.50
2022-10-23T19:49:20.243Z,97822.28
2022-10-23T19:51:23.278Z,97818.50
2022-10-23T19:53:26.533Z,97818.03
2022-10-23T19:55:30.873Z,97823.97
2022-10-23T19:57:34.919Z,97822.81
2022-10-23T19:59:37.894Z,97823.66
2022-10-23T20:01:43.871Z,97826.13
2022-10-23T20:03:49.718Z,97809.13
2022-10-23T20:05:52.933Z,97807.78
2022-10-23T20:07:56.381Z,97803.00
2022-10-23T20:10:00.840Z,97799.84
2022-10-23T20:12:05.860Z,97796.56
2022-10-23T20:14:09.113Z,97800.34
2022-10-23T20:16:17.821Z,97799.19
2022-10-23T20:18:20.960Z,97801.53
2022-10-23T20:20:24.062Z,97804.66
2022-10-23T20:22:27.330Z,97812.25
2022-10-23T20:24:30.749Z,97811.13
2022-10-23T20:26:34.148Z,97807.78
2022-10-23T20:28:38.759Z,97809.13
2022-10-23T20:30:42.470Z,97805.63
2022-10-23T20:32:46.947Z,97806.63
2022-10-23T20:34:50.143Z,97813.56
2022-10-23T20:36:53.189Z,97804.31
2022-10-23T20:38:56.871Z,97805.78
2022-10-23T20:41:03.969Z,97803.00
2022-10-23T20:43:06.919Z,97804.00
2022-10-23T20:45:11.999Z,97800.66
2022-10-23T20:47:15.010Z,97810.09
2022-10-23T20:49:18.767Z,97800.16
2022-10-23T20:51:24.154Z,97801.34
2022-10-23T20:53:27.771Z,97803.03
2022-10-23T20:55:30.979Z,97806.19
2022-10-23T20:57:34.259Z,97807.38
2022-10-23T20:59:37.273Z,97807.03
2022-10-23T21:01:43.202Z,97803.06
2022-10-23T21:03:50.710Z,97798.81
2022-10-23T21:05:53.778Z,97803.44
2022-10-23T21:07:57.105Z,97801.28
2022-10-23T21:10:01.054Z,97806.91
2022-10-23T21:12:07.430Z,97806.25
2022-10-23T21:14:10.475Z,97806.78
2022-10-23T21:16:14.744Z,97795.59
2022-10-23T21:18:41.014Z,97790.63
2022-10-23T21:20:43.003Z,97803.19
2022-10-23T21:22:46.270Z,97801.34
2022-10-23T21:24:52.342Z,97804.34
2022-10-23T21:26:55.715Z,97808.13
2022-10-23T21:29:13.722Z,97803.84
2022-10-23T21:31:23.304Z,97815.44
2022-10-23T21:33:28.870Z,97800.69
2022-10-23T21:35:32.703Z,97804.66
2022-10-23T21:37:36.010Z,97806.81
2022-10-23T21:39:42.988Z,97810.13
2022-10-23T21:41:46.246Z,97815.88
2022-10-23T21:43:49.502Z,97824.00
2022-10-23T21:45:55.442Z,97821.84
2022-10-23T21:48:01.155Z,97824.00
2022-10-23T21:50:08.840Z,97828.31
2022-10-23T21:52:13.979Z,97812.41
2022-10-23T21:54:19.307Z,97817.72
2022-10-23T21:56:28.202Z,97813.88
2022-10-23T21:58:31.451Z,97811.75
2022-10-23T22:00:37.675Z,97809.78
2022-10-23T22:02:40.788Z,97805.94
2022-10-23T22:04:43.945Z,97803.28
2022-10-23T22:06:49.824Z,97807.13
2022-10-23T22:08:56.232Z,97803.81
2022-10-23T22:10:59.433Z,97807.13
2022-10-23T22:13:02.466Z,97802.16
2022-10-23T22:15:06.295Z,97801.16
2022-10-23T22:17:09.347Z,97795.22
2022-10-23T22:19:14.006Z,97794.22
2022-10-23T22:21:20.036Z,97792.56
2022-10-23T22:23:24.421Z,97788.13
2022-10-23T22:25:27.498Z,97774.03
2022-10-23T22:27:30.506Z,97785.94
2022-10-23T22:29:33.516Z,97776.34
2022-10-23T22:31:37.495Z,97766.41
2022-10-23T22:33:40.436Z,97771.69
2022-10-23T22:35:43.783Z,97765.59
2022-10-23T22:37:46.811Z,97770.72
2022-10-23T22:39:52.911Z,97764.75
2022-10-23T22:41:55.912Z,97762.13
2022-10-23T22:43:59.913Z,97773.53
2022-10-23T22:46:03.984Z,97766.56
2022-10-23T22:48:08.389Z,97780.81
2022-10-23T22:50:11.563Z,97766.72
2022-10-23T22:52:14.750Z,97772.03
2022-10-23T22:54:17.964Z,97764.09
2022-10-23T22:56:25.254Z,97763.09
2022-10-23T22:58:28.606Z,97765.75
2022-10-23T23:00:31.819Z,97764.28
2022-10-23T23:02:34.810Z,97772.41
2022-10-23T23:04:38.983Z,97765.75
2022-10-23T23:06:42.375Z,97770.69
2022-10-23T23:08:46.072Z,97765.41
2022-10-23T23:10:53.413Z,97779.81
2022-10-23T23:12:57.724Z,97777.31
2022-10-23T23:15:00.768Z,97781.16
2022-10-23T23:17:04.023Z,97780.63
2022-10-23T23:19:07.111Z,97786.09
2022-10-23T23:21:10.080Z,97780.16
2022-10-23T23:23:14.118Z,97788.28
2022-10-23T23:25:17.167Z,97788.78
2022-10-23T23:27:20.102Z,97790.94
2022-10-23T23:29:24.442Z,97781.50
2022-10-23T23:31:27.940Z,97779.34
2022-10-23T23:33:30.979Z,97783.16
2022-10-23T23:35:34.086Z,97790.94
2022-10-23T23:37:37.066Z,97780.38
2022-10-23T23:39:40.054Z,97778.56
2022-10-23T23:41:43.083Z,97792.59
2022-10-23T23:43:46.091Z,97785.69
2022-10-23T23:45:50.415Z,97794.28
2022-10-23T23:47:53.393Z,97791.09
2022-10-23T23:49:56.367Z,97782.69
2022-10-23T23:51:59.335Z,97790.13
2022-10-23T23:54:02.448Z,97785.34
2022-10-23T23:56:05.839Z,97780.38
2022-10-23T23:58:08.942Z,97782.69
